createdAt,value
2023-05-09T00:00:46.127Z,7.75
2023-05-09T00:03:12.786Z,6.60
2023-05-09T00:05:39.391Z,7.18
2023-05-09T00:08:05.906Z,5.65
2023-05-09T00:10:32.485Z,5.47
2023-05-09T00:12:59.768Z,4.88
2023-05-09T00:15:26.781Z,5.82
2023-05-09T00:17:54.462Z,6.90
2023-05-09T00:20:21.757Z,5.88
2023-05-09T00:22:48.299Z,5.47
2023-05-09T00:25:14.999Z,7.25
2023-05-09T00:27:41.763Z,6.20
2023-05-09T00:30:08.851Z,6.07
2023-05-09T00:32:35.675Z,5.63
2023-05-09T00:35:02.399Z,6.47
2023-05-09T00:37:30.505Z,6.20
2023-05-09T00:39:57.089Z,3.97
2023-05-09T00:42:23.644Z,4.20
2023-05-09T00:44:50.409Z,5.60
2023-05-09T00:47:17.092Z,6.50
2023-05-09T00:49:43.730Z,6.43
2023-05-09T00:52:10.483Z,7.07
2023-05-09T00:54:38.019Z,5.55
2023-05-09T00:57:04.742Z,5.20
2023-05-09T00:59:31.321Z,6.38
2023-05-09T01:01:58.048Z,4.78
2023-05-09T01:04:24.728Z,5.15
2023-05-09T01:07:13.826Z,5.75
2023-05-09T01:09:55.412Z,5.72
2023-05-09T01:12:29.270Z,7.00
2023-05-09T01:15:23.637Z,4.95
2023-05-09T01:17:58.305Z,6.68
2023-05-09T01:20:39.359Z,7.93
2023-05-09T01:23:23.842Z,6.50
2023-05-09T01:26:04.433Z,5.88
2023-05-09T01:28:54.673Z,7.28
2023-05-09T01:31:21.481Z,7.10
2023-05-09T01:33:53.643Z,7.95
2023-05-09T01:36:21.532Z,5.53
2023-05-09T01:38:52.563Z,6.85
2023-05-09T01:41:20.844Z,7.03
2023-05-09T01:43:50.355Z,9.55
2023-05-09T01:46:19.395Z,7.22
2023-05-09T01:48:46.746Z,6.60
2023-05-09T01:51:14.239Z,6.35
2023-05-09T01:53:42.098Z,4.85
2023-05-09T01:56:10.869Z,6.43
2023-05-09T01:58:40.216Z,8.35
2023-05-09T02:01:07.141Z,7.15
2023-05-09T02:03:34.644Z,6.35
2023-05-09T02:06:04.632Z,8.80
2023-05-09T02:08:32.771Z,5.85
2023-05-09T02:11:00.307Z,8.02
2023-05-09T02:13:26.944Z,8.60
2023-05-09T02:15:55.157Z,6.47
2023-05-09T02:18:21.848Z,6.53
2023-05-09T02:20:48.742Z,6.75
2023-05-09T02:23:15.601Z,6.55
2023-05-09T02:25:42.624Z,5.20
2023-05-09T02:28:10.454Z,5.80
2023-05-09T02:30:41.944Z,6.70
2023-05-09T02:33:11.767Z,5.07
2023-05-09T02:35:41.830Z,4.43
2023-05-09T02:38:08.662Z,4.78
2023-05-09T02:40:35.595Z,5.10
2023-05-09T02:43:02.150Z,5.43
2023-05-09T02:45:28.740Z,3.38
2023-05-09T02:47:56.010Z,4.28
2023-05-09T02:50:22.892Z,5.82
2023-05-09T02:52:49.415Z,4.65
2023-05-09T02:55:16.318Z,7.72
2023-05-09T02:57:43.944Z,5.97
2023-05-09T03:00:11.351Z,6.28
2023-05-09T03:02:39.483Z,4.85
2023-05-09T03:05:10.455Z,5.68
2023-05-09T03:07:37.207Z,6.13
2023-05-09T03:10:04.360Z,5.72
2023-05-09T03:12:31.547Z,7.35
2023-05-09T03:14:58.384Z,3.55
2023-05-09T03:17:25.028Z,5.22
2023-05-09T03:19:51.671Z,5.93
2023-05-09T03:22:18.299Z,3.95
2023-05-09T03:24:52.912Z,6.60
2023-05-09T03:27:19.529Z,5.07
2023-05-09T03:29:47.594Z,4.38
2023-05-09T03:32:15.379Z,2.95
2023-05-09T03:34:42.046Z,3.00
2023-05-09T03:37:08.757Z,4.70
2023-05-09T03:39:39.102Z,3.05
2023-05-09T03:42:05.708Z,3.95
2023-05-09T03:44:32.271Z,5.93
2023-05-09T03:47:00.144Z,6.07
2023-05-09T03:49:31.089Z,5.25
2023-05-09T03:51:57.740Z,5.22
2023-05-09T03:54:26.266Z,4.13
2023-05-09T03:56:52.937Z,4.30
2023-05-09T03:59:19.489Z,5.47
2023-05-09T04:01:46.419Z,4.95
2023-05-09T04:04:13.094Z,5.22
2023-05-09T04:06:40.124Z,5.93
2023-05-09T04:09:09.458Z,4.03
2023-05-09T04:11:36.372Z,5.63
2023-05-09T04:14:07.293Z,5.77
2023-05-09T04:16:36.030Z,4.78
2023-05-09T04:19:02.765Z,4.35
2023-05-09T04:21:29.430Z,5.43
2023-05-09T04:23:59.306Z,3.70
2023-05-09T04:26:35.371Z,4.38
2023-05-09T04:29:02.174Z,4.90
2023-05-09T04:31:29.057Z,3.72
2023-05-09T04:33:56.114Z,3.40
2023-05-09T04:36:22.966Z,3.92
2023-05-09T04:38:49.569Z,3.85
2023-05-09T04:41:21.489Z,4.07
2023-05-09T04:43:48.182Z,3.22
2023-05-09T04:46:14.916Z,4.80
2023-05-09T04:48:42.096Z,3.53
2023-05-09T04:51:08.633Z,4.40
2023-05-09T04:53:35.197Z,2.80
2023-05-09T04:56:01.952Z,4.00
2023-05-09T04:58:31.101Z,5.22
2023-05-09T05:00:58.332Z,4.18
2023-05-09T05:03:25.060Z,4.95
2023-05-09T05:05:51.779Z,4.78
2023-05-09T05:08:18.538Z,4.25
2023-05-09T05:10:45.618Z,4.03
2023-05-09T05:13:14.681Z,3.28
2023-05-09T05:15:45.059Z,3.35
2023-05-09T05:18:12.939Z,4.05
2023-05-09T05:20:43.018Z,4.45
2023-05-09T05:23:10.506Z,3.55
2023-05-09T05:25:37.679Z,4.25
2023-05-09T05:28:05.177Z,2.35
2023-05-09T05:30:33.965Z,2.67
2023-05-09T05:33:01.836Z,2.50
2023-05-09T05:35:29.268Z,2.10
2023-05-09T05:37:56.785Z,2.80
2023-05-09T05:40:23.393Z,3.08
2023-05-09T05:42:51.971Z,4.57
2023-05-09T05:45:18.653Z,3.35
2023-05-09T05:47:49.725Z,3.40
2023-05-09T05:50:17.075Z,3.08
2023-05-09T05:52:43.712Z,3.70
2023-05-09T05:55:13.610Z,5.03
2023-05-09T05:57:40.812Z,4.30
2023-05-09T06:00:11.252Z,4.43
2023-05-09T06:05:22.085Z,3.33
2023-05-09T06:07:49.947Z,2.60
2023-05-09T06:10:17.309Z,2.90
2023-05-09T06:12:45.295Z,3.05
2023-05-09T06:15:12.593Z,3.17
2023-05-09T06:17:42.996Z,2.80
2023-05-09T06:20:09.740Z,2.42
2023-05-09T06:22:36.279Z,2.17
2023-05-09T06:25:02.822Z,2.17
2023-05-09T06:27:29.420Z,1.63
2023-05-09T06:29:56.010Z,1.90
2023-05-09T06:32:23.490Z,2.17
2023-05-09T06:34:50.190Z,2.45
2023-05-09T06:37:16.720Z,2.35
2023-05-09T06:39:43.247Z,2.25
2023-05-09T06:42:09.955Z,3.03
2023-05-09T06:44:38.888Z,2.90
2023-05-09T06:47:05.645Z,2.97
2023-05-09T06:49:32.351Z,3.10
2023-05-09T06:51:58.902Z,2.47
2023-05-09T06:54:25.439Z,2.13
2023-05-09T06:56:51.972Z,2.40
2023-05-09T06:59:18.594Z,2.67
2023-05-09T07:01:45.144Z,2.22
2023-05-09T07:04:11.671Z,3.20
2023-05-09T07:06:38.209Z,2.70
2023-05-09T07:09:04.742Z,3.33
2023-05-09T07:11:37.422Z,2.90
2023-05-09T07:14:04.223Z,2.72
2023-05-09T07:16:30.840Z,2.88
2023-05-09T07:18:57.439Z,2.88
2023-05-09T07:21:23.960Z,2.83
2023-05-09T07:23:50.507Z,3.53
2023-05-09T07:26:17.045Z,3.45
2023-05-09T07:28:43.572Z,3.42
2023-05-09T07:31:10.268Z,3.42
2023-05-09T07:33:36.901Z,3.15
2023-05-09T07:36:03.550Z,3.20
2023-05-09T07:38:30.119Z,2.70
2023-05-09T07:40:56.682Z,2.63
2023-05-09T07:43:23.275Z,2.47
2023-05-09T07:45:49.892Z,2.67
2023-05-09T07:48:16.479Z,2.15
2023-05-09T07:50:43.075Z,2.63
2023-05-09T07:53:09.813Z,2.80
2023-05-09T07:55:36.484Z,2.50
2023-05-09T07:58:03.033Z,2.40
2023-05-09T08:00:29.585Z,2.45
2023-05-09T08:02:56.267Z,2.30
2023-05-09T08:05:22.952Z,2.97
2023-05-09T08:07:49.489Z,2.13
2023-05-09T08:10:16.563Z,2.10
2023-05-09T08:12:43.212Z,2.47
2023-05-09T08:15:10.199Z,1.65
2023-05-09T08:17:36.741Z,1.90
2023-05-09T08:20:05.555Z,2.13
2023-05-09T08:22:32.099Z,2.00
2023-05-09T08:24:58.649Z,1.83
2023-05-09T08:27:27.739Z,1.50
2023-05-09T08:29:54.292Z,1.80
2023-05-09T08:32:20.913Z,1.70
2023-05-09T08:34:47.468Z,1.80
2023-05-09T08:37:15.293Z,1.40
2023-05-09T08:39:42.768Z,1.13
2023-05-09T08:42:09.926Z,1.20
2023-05-09T08:44:36.849Z,1.20
2023-05-09T08:47:04.820Z,1.30
2023-05-09T08:49:31.715Z,1.00
2023-05-09T08:51:58.864Z,1.10
2023-05-09T08:54:25.662Z,0.93
2023-05-09T08:56:52.257Z,1.20
2023-05-09T08:59:19.483Z,1.00
2023-05-09T09:01:46.354Z,1.10
2023-05-09T09:04:13.049Z,1.30
2023-05-09T09:06:40.745Z,0.90
2023-05-09T09:09:11.436Z,1.15
2023-05-09T09:11:39.014Z,0.90
2023-05-09T09:14:16.460Z,0.90
2023-05-09T09:16:45.853Z,1.00
2023-05-09T09:19:16.508Z,0.88
2023-05-09T09:21:45.546Z,0.93
2023-05-09T09:24:21.439Z,0.70
2023-05-09T09:26:50.363Z,1.10
2023-05-09T09:29:18.625Z,1.00
2023-05-09T09:31:46.316Z,1.05
2023-05-09T09:34:19.105Z,0.75
2023-05-09T09:36:46.875Z,1.10
2023-05-09T09:39:14.311Z,1.13
2023-05-09T09:41:41.501Z,0.70
2023-05-09T09:44:12.054Z,0.90
2023-05-09T09:46:42.724Z,1.00
2023-05-09T09:49:17.158Z,0.70
2023-05-09T09:51:44.501Z,0.90
2023-05-09T09:54:12.897Z,0.90
2023-05-09T09:56:43.904Z,1.02
2023-05-09T09:59:12.252Z,1.20
2023-05-09T10:01:57.274Z,1.45
2023-05-09T10:04:25.005Z,1.30
2023-05-09T10:06:56.131Z,1.55
2023-05-09T10:11:54.684Z,1.60
2023-05-09T10:14:23.397Z,1.63
2023-05-09T10:16:52.102Z,1.83
2023-05-09T10:19:23.624Z,1.38
2023-05-09T10:22:04.937Z,1.55
2023-05-09T10:27:09.584Z,1.30
2023-05-09T10:29:38.684Z,1.23
2023-05-09T10:32:39.030Z,1.35
2023-05-09T10:35:07.552Z,1.25
2023-05-09T10:37:34.104Z,1.30
2023-05-09T10:40:04.174Z,1.15
2023-05-09T10:42:31.324Z,1.45
2023-05-09T10:44:58.391Z,1.10
2023-05-09T10:47:29.592Z,0.95
2023-05-09T10:52:23.105Z,1.40
2023-05-09T10:55:03.545Z,1.38
2023-05-09T10:57:31.460Z,1.30
2023-05-09T10:59:59.244Z,1.20
2023-05-09T11:02:33.892Z,1.30
2023-05-09T11:05:14.553Z,1.20
2023-05-09T11:07:41.245Z,1.15
2023-05-09T11:10:09.961Z,1.08
2023-05-09T11:12:58.062Z,1.30
2023-05-09T11:15:27.337Z,1.13
2023-05-09T11:18:12.336Z,1.20
2023-05-09T11:20:44.558Z,1.15
2023-05-09T11:23:17.184Z,1.35
2023-05-09T11:25:46.722Z,1.50
2023-05-09T11:28:28.233Z,1.48
2023-05-09T11:31:09.342Z,1.48
2023-05-09T11:33:37.288Z,1.10
2023-05-09T11:36:18.515Z,1.25
2023-05-09T11:38:47.090Z,1.48
2023-05-09T11:41:14.228Z,1.40
2023-05-09T11:43:42.778Z,1.50
2023-05-09T11:46:09.378Z,1.30
2023-05-09T11:48:39.993Z,1.60
2023-05-09T11:51:07.536Z,1.30
2023-05-09T11:53:34.360Z,1.40
2023-05-09T11:56:04.970Z,1.15
2023-05-09T11:58:31.739Z,1.50
2023-05-09T12:00:58.630Z,1.30
2023-05-09T12:03:25.750Z,1.05
2023-05-09T12:05:54.644Z,1.17
2023-05-09T12:08:22.748Z,1.10
2023-05-09T12:10:49.948Z,1.17
2023-05-09T12:13:20.662Z,1.40
2023-05-09T12:15:47.489Z,0.90
2023-05-09T12:18:14.566Z,1.10
2023-05-09T12:20:46.026Z,1.15
2023-05-09T12:23:14.400Z,1.10
2023-05-09T12:25:55.327Z,1.17
2023-05-09T12:28:24.088Z,1.08
2023-05-09T12:30:52.267Z,1.40
2023-05-09T12:33:19.165Z,1.50
2023-05-09T12:35:47.382Z,1.33
2023-05-09T12:38:23.569Z,1.30
2023-05-09T12:41:03.515Z,1.23
2023-05-09T12:43:39.386Z,1.95
2023-05-09T12:46:06.270Z,1.20
2023-05-09T12:48:38.728Z,1.20
2023-05-09T12:51:06.261Z,1.02
2023-05-09T12:53:38.836Z,1.25
2023-05-09T12:56:21.339Z,1.48
2023-05-09T12:58:52.384Z,1.27
2023-05-09T13:01:20.383Z,1.40
2023-05-09T13:04:01.077Z,1.50
2023-05-09T13:06:27.619Z,1.40
2023-05-09T13:09:02.289Z,1.60
2023-05-09T13:11:29.483Z,1.42
2023-05-09T13:13:56.114Z,1.30
2023-05-09T13:16:24.803Z,1.45
2023-05-09T13:18:51.365Z,1.27
2023-05-09T13:21:18.049Z,1.52
2023-05-09T13:23:45.438Z,1.40
2023-05-09T13:26:12.143Z,1.35
2023-05-09T13:28:38.738Z,1.55
2023-05-09T13:31:05.389Z,1.50
2023-05-09T13:33:32.106Z,1.30
2023-05-09T13:35:58.690Z,1.40
2023-05-09T13:38:25.762Z,1.20
2023-05-09T13:40:52.306Z,1.50
2023-05-09T13:43:18.818Z,1.33
2023-05-09T13:45:45.403Z,1.38
2023-05-09T13:48:12.107Z,1.52
2023-05-09T13:50:38.678Z,1.77
2023-05-09T13:53:05.175Z,1.58
2023-05-09T13:55:31.771Z,1.30
2023-05-09T13:57:58.329Z,1.20
2023-05-09T14:00:26.563Z,1.55
2023-05-09T14:02:53.187Z,1.80
2023-05-09T14:05:19.838Z,1.55
2023-05-09T14:07:46.430Z,1.58
2023-05-09T14:10:12.987Z,1.45
2023-05-09T14:12:40.412Z,1.45
2023-05-09T14:15:08.275Z,1.33
2023-05-09T14:17:35.095Z,1.40
2023-05-09T14:20:01.770Z,1.67
2023-05-09T14:22:28.336Z,2.20
2023-05-09T14:24:57.258Z,2.03
2023-05-09T14:27:24.166Z,1.85
2023-05-09T14:29:50.767Z,1.92
2023-05-09T14:32:17.450Z,1.85
2023-05-09T14:34:44.157Z,2.30
2023-05-09T14:37:14.160Z,2.45
2023-05-09T14:39:42.487Z,2.08
2023-05-09T14:42:11.472Z,2.92
2023-05-09T14:44:39.013Z,2.20
2023-05-09T14:47:06.117Z,2.13
2023-05-09T14:49:32.883Z,2.50
2023-05-09T14:51:59.594Z,2.20
2023-05-09T14:54:26.116Z,2.58
2023-05-09T14:56:54.060Z,1.83
2023-05-09T14:59:21.058Z,2.00
2023-05-09T15:01:47.593Z,2.40
2023-05-09T15:04:14.141Z,3.13
2023-05-09T15:06:41.140Z,2.38
2023-05-09T15:09:08.366Z,2.50
2023-05-09T15:11:46.955Z,2.20
2023-05-09T15:14:14.875Z,2.92
2023-05-09T15:16:41.544Z,2.58
2023-05-09T15:19:08.357Z,2.47
2023-05-09T15:21:35.101Z,3.05
2023-05-09T15:24:02.376Z,1.98
2023-05-09T15:26:29.282Z,2.03
2023-05-09T15:28:55.911Z,2.22
2023-05-09T15:31:24.028Z,2.22
2023-05-09T15:33:50.885Z,2.10
2023-05-09T15:36:17.459Z,2.40
2023-05-09T15:38:48.306Z,2.30
2023-05-09T15:41:15.715Z,3.72
2023-05-09T15:43:42.363Z,2.72
2023-05-09T15:46:09.026Z,3.97
2023-05-09T15:48:35.637Z,2.58
2023-05-09T15:51:02.755Z,2.40
2023-05-09T15:53:29.632Z,2.65
2023-05-09T15:55:57.029Z,1.55
2023-05-09T15:58:23.589Z,2.15
2023-05-09T16:00:50.274Z,2.17
2023-05-09T16:03:18.408Z,1.92
2023-05-09T16:05:45.536Z,1.98
2023-05-09T16:08:12.894Z,2.33
2023-05-09T16:10:39.622Z,2.15
2023-05-09T16:13:07.389Z,1.90
2023-05-09T16:15:34.059Z,2.28
2023-05-09T16:18:00.630Z,2.05
2023-05-09T16:20:27.265Z,2.00
2023-05-09T16:22:53.839Z,2.55
2023-05-09T16:25:20.367Z,2.70
2023-05-09T16:27:46.930Z,2.60
2023-05-09T16:30:14.464Z,2.00
2023-05-09T16:32:41.213Z,2.72
2023-05-09T16:35:08.277Z,2.08
2023-05-09T16:37:35.652Z,1.67
2023-05-09T16:40:02.875Z,1.52
2023-05-09T16:42:30.520Z,2.33
2023-05-09T16:44:57.345Z,2.08
2023-05-09T16:47:24.014Z,2.10
2023-05-09T16:49:50.673Z,1.70
2023-05-09T16:52:17.203Z,1.70
2023-05-09T16:54:43.777Z,2.70
2023-05-09T16:57:10.552Z,2.10
2023-05-09T16:59:37.301Z,1.90
2023-05-09T17:02:04.547Z,1.88
2023-05-09T17:04:35.290Z,2.47
2023-05-09T17:07:04.186Z,2.33
2023-05-09T17:09:32.481Z,3.70
2023-05-09T17:12:00.561Z,2.80
2023-05-09T17:14:27.352Z,1.75
2023-05-09T17:16:54.277Z,1.90
2023-05-09T17:19:23.452Z,1.67
2023-05-09T17:21:50.286Z,2.15
2023-05-09T17:24:17.480Z,1.60
2023-05-09T17:26:44.465Z,1.38
2023-05-09T17:29:11.431Z,1.63
2023-05-09T17:31:38.706Z,1.02
2023-05-09T17:34:05.784Z,1.23
2023-05-09T17:36:33.868Z,1.40
2023-05-09T17:39:00.994Z,0.93
2023-05-09T17:41:27.915Z,1.08
2023-05-09T17:43:57.447Z,1.00
2023-05-09T17:46:24.890Z,1.02
2023-05-09T17:48:51.814Z,0.90
2023-05-09T17:51:18.885Z,0.68
2023-05-09T17:53:46.770Z,1.02
2023-05-09T17:56:13.603Z,0.90
2023-05-09T17:58:40.456Z,0.60
2023-05-09T18:01:07.263Z,0.50
2023-05-09T18:03:34.176Z,0.93
2023-05-09T18:06:01.937Z,2.00
2023-05-09T18:08:29.587Z,0.70
2023-05-09T18:10:57.838Z,1.20
2023-05-09T18:13:24.751Z,0.82
2023-05-09T18:15:53.992Z,0.90
2023-05-09T18:18:21.023Z,0.60
2023-05-09T18:20:47.873Z,0.40
2023-05-09T18:23:15.516Z,1.10
2023-05-09T18:25:42.417Z,1.10
2023-05-09T18:28:09.347Z,1.98
2023-05-09T18:30:36.308Z,0.88
2023-05-09T18:33:03.230Z,0.70
2023-05-09T18:35:29.952Z,0.50
2023-05-09T18:37:56.954Z,0.70
2023-05-09T18:40:23.736Z,0.70
2023-05-09T18:42:50.639Z,0.50
2023-05-09T18:45:21.220Z,0.55
2023-05-09T18:47:47.951Z,0.50
2023-05-09T18:50:18.785Z,0.60
2023-05-09T18:52:45.935Z,0.88
2023-05-09T18:55:14.725Z,0.68
2023-05-09T18:57:41.250Z,0.50
2023-05-09T19:00:08.883Z,0.60
2023-05-09T19:02:35.918Z,0.70
2023-05-09T19:05:06.361Z,0.70
2023-05-09T19:07:34.173Z,0.68
2023-05-09T19:10:01.279Z,0.68
2023-05-09T19:12:28.762Z,1.02
2023-05-09T19:14:56.383Z,2.10
2023-05-09T19:17:23.417Z,1.30
2023-05-09T19:19:50.100Z,1.00
2023-05-09T19:22:16.752Z,0.50
2023-05-09T19:24:43.668Z,0.60
2023-05-09T19:27:10.688Z,1.02
2023-05-09T19:29:39.707Z,0.63
2023-05-09T19:32:07.198Z,0.60
2023-05-09T19:34:34.319Z,0.70
2023-05-09T19:37:09.574Z,0.70
2023-05-09T19:39:36.518Z,0.50
2023-05-09T19:42:03.174Z,0.68
2023-05-09T19:44:30.550Z,0.40
2023-05-09T19:46:58.468Z,0.80
2023-05-09T19:49:24.974Z,0.57
2023-05-09T19:51:51.554Z,0.85
2023-05-09T19:54:18.136Z,0.68
2023-05-09T19:56:44.865Z,0.75
2023-05-09T19:59:11.718Z,0.65
2023-05-09T20:01:42.696Z,0.50
2023-05-09T20:04:16.630Z,0.40
2023-05-09T20:06:49.608Z,0.22
2023-05-09T20:09:24.747Z,0.32
2023-05-09T20:11:54.202Z,0.47
2023-05-09T20:14:22.207Z,0.88
2023-05-09T20:16:48.836Z,0.50
2023-05-09T20:19:15.615Z,0.22
2023-05-09T20:21:42.149Z,0.52
2023-05-09T20:24:08.926Z,0.35
2023-05-09T20:26:35.532Z,0.32
2023-05-09T20:29:02.103Z,0.20
2023-05-09T20:31:29.274Z,0.50
2023-05-09T20:33:57.399Z,0.40
2023-05-09T20:36:24.880Z,0.20
2023-05-09T20:38:51.438Z,0.52
2023-05-09T20:41:18.003Z,0.30
2023-05-09T20:43:44.590Z,0.30
2023-05-09T20:46:11.489Z,0.57
2023-05-09T20:48:38.053Z,0.40
2023-05-09T20:51:04.654Z,0.40
2023-05-09T20:53:32.420Z,0.22
2023-05-09T20:55:59.943Z,0.20
2023-05-09T20:58:28.033Z,0.10
2023-05-09T21:00:54.587Z,0.20
2023-05-09T21:03:21.242Z,0.30
2023-05-09T21:05:47.806Z,0.30
2023-05-09T21:08:14.513Z,0.13
2023-05-09T21:10:41.202Z,0.55
2023-05-09T21:13:07.919Z,0.30
2023-05-09T21:15:34.553Z,0.22
2023-05-09T21:18:01.189Z,0.20
2023-05-09T21:20:27.797Z,0.25
2023-05-09T21:22:54.329Z,0.20
2023-05-09T21:25:20.961Z,0.50
2023-05-09T21:27:47.596Z,0.20
2023-05-09T21:30:15.005Z,0.30
2023-05-09T21:32:41.801Z,0.20
2023-05-09T21:35:12.520Z,0.40
2023-05-09T21:37:39.328Z,0.20
2023-05-09T21:40:06.595Z,0.40
2023-05-09T21:42:33.241Z,0.20
2023-05-09T21:44:59.780Z,0.20
2023-05-09T21:47:26.659Z,0.35
2023-05-09T21:49:53.424Z,0.20
2023-05-09T21:52:19.982Z,0.10
2023-05-09T21:54:46.551Z,0.40
2023-05-09T21:57:13.114Z,0.50
2023-05-09T21:59:39.651Z,0.30
2023-05-09T22:02:06.218Z,0.30
2023-05-09T22:04:32.784Z,0.20
2023-05-09T22:06:59.416Z,0.20
2023-05-09T22:09:25.957Z,0.20
2023-05-09T22:11:52.950Z,0.30
2023-05-09T22:14:19.470Z,0.20
2023-05-09T22:16:46.081Z,0.40
2023-05-09T22:19:12.614Z,0.30
2023-05-09T22:21:39.131Z,0.30
2023-05-09T22:24:07.529Z,0.50
2023-05-09T22:26:34.041Z,0.40
2023-05-09T22:29:00.576Z,0.30
2023-05-09T22:31:27.354Z,1.00
2023-05-09T22:33:53.940Z,1.30
2023-05-09T22:36:20.456Z,1.67
2023-05-09T22:38:46.995Z,0.85
2023-05-09T22:41:14.365Z,0.60
2023-05-09T22:43:41.467Z,0.38
2023-05-09T22:46:08.120Z,0.30
2023-05-09T22:48:34.715Z,0.30
2023-05-09T22:51:02.435Z,0.20
2023-05-09T22:53:29.002Z,0.40
2023-05-09T22:55:55.644Z,0.10
2023-05-09T22:58:22.552Z,0.30
2023-05-09T23:00:49.202Z,0.10
2023-05-09T23:03:16.373Z,0.17
2023-05-09T23:05:43.447Z,0.10
2023-05-09T23:08:10.076Z,0.10
2023-05-09T23:10:36.624Z,0.10
2023-05-09T23:13:04.681Z,0.22
2023-05-09T23:15:31.329Z,0.17
2023-05-09T23:17:58.361Z,0.20
2023-05-09T23:20:25.783Z,0.22
2023-05-09T23:22:52.346Z,0.10
2023-05-09T23:25:18.974Z,0.10
2023-05-09T23:27:46.843Z,0.30
2023-05-09T23:30:13.816Z,0.20
2023-05-09T23:32:40.408Z,0.20
2023-05-09T23:35:07.181Z,0.30
2023-05-09T23:37:34.056Z,0.30
2023-05-09T23:40:00.906Z,0.20
2023-05-09T23:42:27.464Z,0.40
2023-05-09T23:44:54.087Z,0.35
2023-05-09T23:47:20.677Z,0.35
2023-05-09T23:49:47.241Z,0.40
2023-05-09T23:52:14.558Z,0.32
2023-05-09T23:54:41.071Z,0.43
2023-05-09T23:57:07.761Z,0.30
2023-05-09T23:59:34.379Z,0.20
